sensor_id;sensor_type;location;lat;lon;timestamp;P1;durP1;ratioP1;P2;durP2;ratioP2
5774;SDS011;2913;51.120;6.772;2023-03-14T00:02:16;10.60;;;2.30;;
5774;SDS011;2913;51.120;6.772;2023-03-14T00:04:44;14.57;;;2.50;;
5774;SDS011;2913;51.120;6.772;2023-03-14T00:07:12;18.08;;;2.60;;
5774;SDS011;2913;51.120;6.772;2023-03-14T00:09:39;11.43;;;2.35;;
5774;SDS011;2913;51.120;6.772;2023-03-14T00:12:07;11.73;;;2.13;;
5774;SDS011;2913;51.120;6.772;2023-03-14T00:14:36;13.15;;;2.60;;
5774;SDS011;2913;51.120;6.772;2023-03-14T00:17:01;13.65;;;2.38;;
5774;SDS011;2913;51.120;6.772;2023-03-14T00:19:27;12.85;;;2.60;;
5774;SDS011;2913;51.120;6.772;2023-03-14T00:21:55;16.67;;;2.85;;
5774;SDS011;2913;51.120;6.772;2023-03-14T00:24:23;16.08;;;2.88;;
5774;SDS011;2913;51.120;6.772;2023-03-14T00:26:48;11.60;;;2.47;;
5774;SDS011;2913;51.120;6.772;2023-03-14T00:29:14;14.82;;;2.95;;
5774;SDS011;2913;51.120;6.772;2023-03-14T00:31:42;20.20;;;2.92;;
5774;SDS011;2913;51.120;6.772;2023-03-14T00:34:07;19.98;;;3.33;;
5774;SDS011;2913;51.120;6.772;2023-03-14T00:36:38;20.50;;;2.47;;
5774;SDS011;2913;51.120;6.772;2023-03-14T00:39:04;30.13;;;2.95;;
5774;SDS011;2913;51.120;6.772;2023-03-14T00:41:34;31.13;;;2.83;;
5774;SDS011;2913;51.120;6.772;2023-03-14T00:43:59;6.35;;;1.52;;
5774;SDS011;2913;51.120;6.772;2023-03-14T00:46:25;23.50;;;1.80;;
5774;SDS011;2913;51.120;6.772;2023-03-14T00:48:50;8.93;;;1.15;;
5774;SDS011;2913;51.120;6.772;2023-03-14T00:51:16;8.90;;;1.23;;
5774;SDS011;2913;51.120;6.772;2023-03-14T00:53:44;10.63;;;1.38;;
5774;SDS011;2913;51.120;6.772;2023-03-14T00:56:13;13.73;;;2.05;;
5774;SDS011;2913;51.120;6.772;2023-03-14T00:58:41;19.90;;;2.08;;
5774;SDS011;2913;51.120;6.772;2023-03-14T01:01:10;15.20;;;1.02;;
5774;SDS011;2913;51.120;6.772;2023-03-14T01:03:39;20.42;;;1.88;;
5774;SDS011;2913;51.120;6.772;2023-03-14T01:06:14;13.75;;;1.10;;
5774;SDS011;2913;51.120;6.772;2023-03-14T01:08:42;16.02;;;1.20;;
5774;SDS011;2913;51.120;6.772;2023-03-14T01:11:09;14.48;;;1.67;;
5774;SDS011;2913;51.120;6.772;2023-03-14T01:13:37;7.95;;;1.02;;
5774;SDS011;2913;51.120;6.772;2023-03-14T01:16:04;17.52;;;1.30;;
5774;SDS011;2913;51.120;6.772;2023-03-14T01:18:32;12.50;;;1.70;;
5774;SDS011;2913;51.120;6.772;2023-03-14T01:21:00;8.70;;;1.40;;
5774;SDS011;2913;51.120;6.772;2023-03-14T01:23:26;13.82;;;1.65;;
5774;SDS011;2913;51.120;6.772;2023-03-14T01:25:51;10.48;;;1.30;;
5774;SDS011;2913;51.120;6.772;2023-03-14T01:28:17;9.05;;;1.40;;
5774;SDS011;2913;51.120;6.772;2023-03-14T01:30:45;24.20;;;2.78;;
5774;SDS011;2913;51.120;6.772;2023-03-14T01:33:15;25.58;;;2.00;;
5774;SDS011;2913;51.120;6.772;2023-03-14T01:35:41;15.65;;;2.20;;
5774;SDS011;2913;51.120;6.772;2023-03-14T01:38:09;24.83;;;3.17;;
5774;SDS011;2913;51.120;6.772;2023-03-14T01:40:43;12.23;;;1.80;;
5774;SDS011;2913;51.120;6.772;2023-03-14T01:43:14;19.60;;;1.92;;
5774;SDS011;2913;51.120;6.772;2023-03-14T01:48:37;16.08;;;1.83;;
5774;SDS011;2913;51.120;6.772;2023-03-14T01:51:09;20.75;;;1.98;;
5774;SDS011;2913;51.120;6.772;2023-03-14T01:53:54;20.42;;;1.58;;
5774;SDS011;2913;51.120;6.772;2023-03-14T01:56:24;14.73;;;3.10;;
5774;SDS011;2913;51.120;6.772;2023-03-14T01:58:50;28.92;;;2.45;;
5774;SDS011;2913;51.120;6.772;2023-03-14T02:01:20;22.67;;;1.85;;
5774;SDS011;2913;51.120;6.772;2023-03-14T02:03:56;16.70;;;3.40;;
5774;SDS011;2913;51.120;6.772;2023-03-14T02:06:29;6.10;;;1.52;;
5774;SDS011;2913;51.120;6.772;2023-03-14T02:09:19;22.98;;;1.60;;
5774;SDS011;2913;51.120;6.772;2023-03-14T02:11:46;9.13;;;1.48;;
5774;SDS011;2913;51.120;6.772;2023-03-14T02:14:18;15.07;;;1.63;;
5774;SDS011;2913;51.120;6.772;2023-03-14T02:16:54;19.35;;;2.58;;
5774;SDS011;2913;51.120;6.772;2023-03-14T02:19:21;16.80;;;1.77;;
5774;SDS011;2913;51.120;6.772;2023-03-14T02:22:10;7.32;;;1.38;;
5774;SDS011;2913;51.120;6.772;2023-03-14T02:24:40;11.95;;;2.25;;
5774;SDS011;2913;51.120;6.772;2023-03-14T02:27:15;10.25;;;1.50;;
5774;SDS011;2913;51.120;6.772;2023-03-14T02:29:46;18.27;;;2.35;;
5774;SDS011;2913;51.120;6.772;2023-03-14T02:32:12;11.60;;;1.50;;
5774;SDS011;2913;51.120;6.772;2023-03-14T02:34:39;8.73;;;1.13;;
5774;SDS011;2913;51.120;6.772;2023-03-14T02:37:07;17.50;;;1.60;;
5774;SDS011;2913;51.120;6.772;2023-03-14T02:39:38;16.40;;;1.80;;
5774;SDS011;2913;51.120;6.772;2023-03-14T02:42:05;17.15;;;1.75;;
5774;SDS011;2913;51.120;6.772;2023-03-14T02:44:32;13.13;;;1.60;;
5774;SDS011;2913;51.120;6.772;2023-03-14T02:47:02;19.13;;;2.08;;
5774;SDS011;2913;51.120;6.772;2023-03-14T02:49:29;20.75;;;2.15;;
5774;SDS011;2913;51.120;6.772;2023-03-14T02:52:00;10.50;;;1.75;;
5774;SDS011;2913;51.120;6.772;2023-03-14T02:54:25;11.95;;;1.35;;
5774;SDS011;2913;51.120;6.772;2023-03-14T02:56:56;16.17;;;2.22;;
5774;SDS011;2913;51.120;6.772;2023-03-14T02:59:21;20.23;;;2.58;;
5774;SDS011;2913;51.120;6.772;2023-03-14T03:01:47;17.35;;;1.88;;
5774;SDS011;2913;51.120;6.772;2023-03-14T03:04:12;22.92;;;2.30;;
5774;SDS011;2913;51.120;6.772;2023-03-14T03:06:38;14.50;;;2.08;;
5774;SDS011;2913;51.120;6.772;2023-03-14T03:09:07;6.10;;;1.60;;
5774;SDS011;2913;51.120;6.772;2023-03-14T03:11:35;7.82;;;1.58;;
5774;SDS011;2913;51.120;6.772;2023-03-14T03:14:01;20.48;;;1.70;;
5774;SDS011;2913;51.120;6.772;2023-03-14T03:16:26;22.08;;;1.58;;
5774;SDS011;2913;51.120;6.772;2023-03-14T03:18:54;12.70;;;1.58;;
5774;SDS011;2913;51.120;6.772;2023-03-14T03:21:20;20.23;;;1.52;;
5774;SDS011;2913;51.120;6.772;2023-03-14T03:23:48;19.48;;;2.15;;
5774;SDS011;2913;51.120;6.772;2023-03-14T03:26:14;22.10;;;1.90;;
5774;SDS011;2913;51.120;6.772;2023-03-14T03:28:42;17.98;;;2.30;;
5774;SDS011;2913;51.120;6.772;2023-03-14T03:31:08;12.95;;;3.83;;
5774;SDS011;2913;51.120;6.772;2023-03-14T03:33:36;9.93;;;2.17;;
5774;SDS011;2913;51.120;6.772;2023-03-14T03:36:02;17.90;;;2.22;;
5774;SDS011;2913;51.120;6.772;2023-03-14T03:38:27;24.70;;;2.08;;
5774;SDS011;2913;51.120;6.772;2023-03-14T03:40:53;11.60;;;2.28;;
5774;SDS011;2913;51.120;6.772;2023-03-14T03:43:21;15.32;;;2.28;;
5774;SDS011;2913;51.120;6.772;2023-03-14T03:45:49;19.02;;;2.28;;
5774;SDS011;2913;51.120;6.772;2023-03-14T03:48:14;19.33;;;2.45;;
5774;SDS011;2913;51.120;6.772;2023-03-14T03:50:43;17.67;;;2.50;;
5774;SDS011;2913;51.120;6.772;2023-03-14T03:53:12;14.30;;;1.80;;
5774;SDS011;2913;51.120;6.772;2023-03-14T03:55:40;18.42;;;1.85;;
5774;SDS011;2913;51.120;6.772;2023-03-14T03:58:07;15.93;;;2.33;;
5774;SDS011;2913;51.120;6.772;2023-03-14T04:00:33;22.05;;;2.90;;
5774;SDS011;2913;51.120;6.772;2023-03-14T04:02:58;19.25;;;2.00;;
5774;SDS011;2913;51.120;6.772;2023-03-14T04:05:25;16.92;;;2.58;;
5774;SDS011;2913;51.120;6.772;2023-03-14T04:07:53;16.50;;;2.22;;
5774;SDS011;2913;51.120;6.772;2023-03-14T04:10:18;26.20;;;2.88;;
5774;SDS011;2913;51.120;6.772;2023-03-14T04:12:44;22.48;;;2.47;;
5774;SDS011;2913;51.120;6.772;2023-03-14T04:15:10;17.33;;;1.98;;
5774;SDS011;2913;51.120;6.772;2023-03-14T04:17:35;26.13;;;2.15;;
5774;SDS011;2913;51.120;6.772;2023-03-14T04:20:01;9.18;;;1.25;;
5774;SDS011;2913;51.120;6.772;2023-03-14T04:22:28;18.98;;;2.50;;
5774;SDS011;2913;51.120;6.772;2023-03-14T04:24:56;14.80;;;1.70;;
5774;SDS011;2913;51.120;6.772;2023-03-14T04:27:22;14.10;;;2.08;;
5774;SDS011;2913;51.120;6.772;2023-03-14T04:29:47;16.85;;;2.70;;
5774;SDS011;2913;51.120;6.772;2023-03-14T04:32:15;15.07;;;1.80;;
5774;SDS011;2913;51.120;6.772;2023-03-14T04:34:43;23.65;;;2.15;;
5774;SDS011;2913;51.120;6.772;2023-03-14T04:37:09;12.65;;;1.95;;
5774;SDS011;2913;51.120;6.772;2023-03-14T04:39:34;10.43;;;1.90;;
5774;SDS011;2913;51.120;6.772;2023-03-14T04:42:00;7.53;;;2.00;;
5774;SDS011;2913;51.120;6.772;2023-03-14T04:44:26;13.07;;;1.60;;
5774;SDS011;2913;51.120;6.772;2023-03-14T04:46:51;10.43;;;1.65;;
5774;SDS011;2913;51.120;6.772;2023-03-14T04:49:19;14.65;;;1.95;;
5774;SDS011;2913;51.120;6.772;2023-03-14T04:51:45;9.45;;;1.60;;
5774;SDS011;2913;51.120;6.772;2023-03-14T04:54:10;9.68;;;1.73;;
5774;SDS011;2913;51.120;6.772;2023-03-14T04:56:36;15.60;;;1.50;;
5774;SDS011;2913;51.120;6.772;2023-03-14T04:59:04;9.13;;;1.70;;
5774;SDS011;2913;51.120;6.772;2023-03-14T05:01:32;9.48;;;1.33;;
5774;SDS011;2913;51.120;6.772;2023-03-14T05:03:58;9.55;;;1.17;;
5774;SDS011;2913;51.120;6.772;2023-03-14T05:06:26;9.43;;;1.52;;
5774;SDS011;2913;51.120;6.772;2023-03-14T05:08:54;8.40;;;1.40;;
5774;SDS011;2913;51.120;6.772;2023-03-14T05:11:19;11.55;;;1.50;;
5774;SDS011;2913;51.120;6.772;2023-03-14T05:13:45;4.10;;;1.00;;
5774;SDS011;2913;51.120;6.772;2023-03-14T05:16:13;6.00;;;1.35;;
5774;SDS011;2913;51.120;6.772;2023-03-14T05:18:38;6.28;;;1.00;;
5774;SDS011;2913;51.120;6.772;2023-03-14T05:21:06;8.35;;;0.93;;
5774;SDS011;2913;51.120;6.772;2023-03-14T05:23:32;7.53;;;0.73;;
5774;SDS011;2913;51.120;6.772;2023-03-14T05:25:57;6.15;;;1.00;;
5774;SDS011;2913;51.120;6.772;2023-03-14T05:28:23;7.97;;;0.88;;
5774;SDS011;2913;51.120;6.772;2023-03-14T05:30:51;3.50;;;0.80;;
5774;SDS011;2913;51.120;6.772;2023-03-14T05:33:16;5.05;;;0.68;;
5774;SDS011;2913;51.120;6.772;2023-03-14T05:35:42;2.65;;;0.65;;
5774;SDS011;2913;51.120;6.772;2023-03-14T05:38:08;5.97;;;0.80;;
5774;SDS011;2913;51.120;6.772;2023-03-14T05:40:34;1.85;;;0.73;;
5774;SDS011;2913;51.120;6.772;2023-03-14T05:42:59;4.90;;;0.88;;
5774;SDS011;2913;51.120;6.772;2023-03-14T05:45:25;8.07;;;0.90;;
5774;SDS011;2913;51.120;6.772;2023-03-14T05:47:51;4.55;;;0.90;;
5774;SDS011;2913;51.120;6.772;2023-03-14T05:50:19;4.28;;;0.68;;
5774;SDS011;2913;51.120;6.772;2023-03-14T05:52:47;2.40;;;0.68;;
5774;SDS011;2913;51.120;6.772;2023-03-14T05:55:15;4.28;;;0.50;;
5774;SDS011;2913;51.120;6.772;2023-03-14T05:57:44;3.03;;;0.40;;
5774;SDS011;2913;51.120;6.772;2023-03-14T06:00:09;1.27;;;0.50;;
5774;SDS011;2913;51.120;6.772;2023-03-14T06:02:35;3.00;;;0.30;;
5774;SDS011;2913;51.120;6.772;2023-03-14T06:05:02;2.92;;;0.50;;
5774;SDS011;2913;51.120;6.772;2023-03-14T06:07:29;2.72;;;0.55;;
5774;SDS011;2913;51.120;6.772;2023-03-14T06:09:59;0.93;;;0.40;;
5774;SDS011;2913;51.120;6.772;2023-03-14T06:12:25;2.53;;;0.45;;
5774;SDS011;2913;51.120;6.772;2023-03-14T06:14:50;0.43;;;0.30;;
5774;SDS011;2913;51.120;6.772;2023-03-14T06:17:19;2.78;;;0.50;;
5774;SDS011;2913;51.120;6.772;2023-03-14T06:19:44;1.25;;;0.50;;
5774;SDS011;2913;51.120;6.772;2023-03-14T06:22:10;5.88;;;0.50;;
5774;SDS011;2913;51.120;6.772;2023-03-14T06:24:36;2.75;;;0.55;;
5774;SDS011;2913;51.120;6.772;2023-03-14T06:27:01;0.40;;;0.30;;
5774;SDS011;2913;51.120;6.772;2023-03-14T06:29:28;3.58;;;0.40;;
5774;SDS011;2913;51.120;6.772;2023-03-14T06:31:54;2.45;;;0.77;;
5774;SDS011;2913;51.120;6.772;2023-03-14T06:34:20;1.67;;;0.57;;
5774;SDS011;2913;51.120;6.772;2023-03-14T06:36:47;0.47;;;0.40;;
5774;SDS011;2913;51.120;6.772;2023-03-14T06:39:13;0.77;;;0.32;;
5774;SDS011;2913;51.120;6.772;2023-03-14T06:41:39;1.77;;;0.70;;
5774;SDS011;2913;51.120;6.772;2023-03-14T06:44:05;1.15;;;0.70;;
5774;SDS011;2913;51.120;6.772;2023-03-14T06:46:33;1.85;;;0.60;;
5774;SDS011;2913;51.120;6.772;2023-03-14T06:48:59;1.13;;;0.57;;
5774;SDS011;2913;51.120;6.772;2023-03-14T06:51:25;4.78;;;0.90;;
5774;SDS011;2913;51.120;6.772;2023-03-14T06:53:52;1.67;;;0.68;;
5774;SDS011;2913;51.120;6.772;2023-03-14T06:56:18;0.60;;;0.43;;
5774;SDS011;2913;51.120;6.772;2023-03-14T06:58:43;0.80;;;0.30;;
5774;SDS011;2913;51.120;6.772;2023-03-14T07:01:21;1.08;;;0.55;;
5774;SDS011;2913;51.120;6.772;2023-03-14T07:03:51;3.58;;;0.65;;
5774;SDS011;2913;51.120;6.772;2023-03-14T07:06:17;3.25;;;0.70;;
5774;SDS011;2913;51.120;6.772;2023-03-14T07:08:45;0.60;;;0.43;;
5774;SDS011;2913;51.120;6.772;2023-03-14T07:11:13;0.80;;;0.40;;
5774;SDS011;2913;51.120;6.772;2023-03-14T07:13:39;2.85;;;0.60;;
5774;SDS011;2913;51.120;6.772;2023-03-14T07:16:05;3.10;;;0.40;;
5774;SDS011;2913;51.120;6.772;2023-03-14T07:18:31;3.60;;;0.85;;
5774;SDS011;2913;51.120;6.772;2023-03-14T07:20:57;1.17;;;0.47;;
5774;SDS011;2913;51.120;6.772;2023-03-14T07:23:22;0.70;;;0.60;;
5774;SDS011;2913;51.120;6.772;2023-03-14T07:25:48;2.47;;;0.73;;
5774;SDS011;2913;51.120;6.772;2023-03-14T07:28:13;1.27;;;0.65;;
5774;SDS011;2913;51.120;6.772;2023-03-14T07:30:39;1.83;;;0.80;;
5774;SDS011;2913;51.120;6.772;2023-03-14T07:33:05;3.67;;;0.70;;
5774;SDS011;2913;51.120;6.772;2023-03-14T07:35:30;3.00;;;0.88;;
5774;SDS011;2913;51.120;6.772;2023-03-14T07:37:58;5.55;;;0.80;;
5774;SDS011;2913;51.120;6.772;2023-03-14T07:40:24;3.13;;;0.40;;
5774;SDS011;2913;51.120;6.772;2023-03-14T07:42:50;2.20;;;0.52;;
5774;SDS011;2913;51.120;6.772;2023-03-14T07:45:16;0.95;;;0.60;;
5774;SDS011;2913;51.120;6.772;2023-03-14T07:47:42;1.65;;;0.82;;
5774;SDS011;2913;51.120;6.772;2023-03-14T07:50:09;3.92;;;0.90;;
5774;SDS011;2913;51.120;6.772;2023-03-14T07:52:37;3.97;;;0.80;;
5774;SDS011;2913;51.120;6.772;2023-03-14T07:55:03;4.97;;;0.60;;
5774;SDS011;2913;51.120;6.772;2023-03-14T07:57:31;1.10;;;0.60;;
5774;SDS011;2913;51.120;6.772;2023-03-14T07:59:57;8.90;;;1.30;;
5774;SDS011;2913;51.120;6.772;2023-03-14T08:02:25;3.50;;;0.65;;
5774;SDS011;2913;51.120;6.772;2023-03-14T08:04:50;1.40;;;0.77;;
5774;SDS011;2913;51.120;6.772;2023-03-14T08:07:16;1.98;;;0.68;;
5774;SDS011;2913;51.120;6.772;2023-03-14T08:09:42;3.35;;;0.60;;
5774;SDS011;2913;51.120;6.772;2023-03-14T08:12:07;3.10;;;1.67;;
5774;SDS011;2913;51.120;6.772;2023-03-14T08:14:37;2.38;;;0.60;;
5774;SDS011;2913;51.120;6.772;2023-03-14T08:17:03;2.22;;;0.80;;
5774;SDS011;2913;51.120;6.772;2023-03-14T08:19:30;6.00;;;0.85;;
5774;SDS011;2913;51.120;6.772;2023-03-14T08:21:55;1.65;;;0.70;;
5774;SDS011;2913;51.120;6.772;2023-03-14T08:24:21;6.60;;;0.85;;
5774;SDS011;2913;51.120;6.772;2023-03-14T08:26:46;1.40;;;0.60;;
5774;SDS011;2913;51.120;6.772;2023-03-14T08:29:12;4.05;;;1.58;;
5774;SDS011;2913;51.120;6.772;2023-03-14T08:31:38;3.05;;;1.10;;
5774;SDS011;2913;51.120;6.772;2023-03-14T08:34:05;1.02;;;0.70;;
5774;SDS011;2913;51.120;6.772;2023-03-14T08:36:34;2.65;;;0.90;;
5774;SDS011;2913;51.120;6.772;2023-03-14T08:38:59;2.13;;;1.10;;
5774;SDS011;2913;51.120;6.772;2023-03-14T08:41:28;8.45;;;2.70;;
5774;SDS011;2913;51.120;6.772;2023-03-14T08:43:56;3.30;;;1.02;;
5774;SDS011;2913;51.120;6.772;2023-03-14T08:46:23;4.95;;;1.15;;
5774;SDS011;2913;51.120;6.772;2023-03-14T08:48:49;8.43;;;1.30;;
5774;SDS011;2913;51.120;6.772;2023-03-14T08:51:15;4.43;;;1.30;;
5774;SDS011;2913;51.120;6.772;2023-03-14T08:53:41;5.65;;;1.42;;
5774;SDS011;2913;51.120;6.772;2023-03-14T08:56:07;6.72;;;1.27;;
5774;SDS011;2913;51.120;6.772;2023-03-14T08:58:35;6.90;;;1.23;;
5774;SDS011;2913;51.120;6.772;2023-03-14T09:01:04;3.55;;;1.30;;
5774;SDS011;2913;51.120;6.772;2023-03-14T09:03:30;3.60;;;1.85;;
5774;SDS011;2913;51.120;6.772;2023-03-14T09:06:00;4.30;;;1.60;;
5774;SDS011;2913;51.120;6.772;2023-03-14T09:08:28;4.75;;;1.50;;
5774;SDS011;2913;51.120;6.772;2023-03-14T09:10:54;6.28;;;1.40;;
5774;SDS011;2913;51.120;6.772;2023-03-14T09:13:19;4.90;;;1.77;;
5774;SDS011;2913;51.120;6.772;2023-03-14T09:15:49;4.22;;;1.05;;
5774;SDS011;2913;51.120;6.772;2023-03-14T09:18:16;2.75;;;1.48;;
5774;SDS011;2913;51.120;6.772;2023-03-14T09:20:44;7.15;;;1.10;;
5774;SDS011;2913;51.120;6.772;2023-03-14T09:23:10;1.58;;;0.80;;
5774;SDS011;2913;51.120;6.772;2023-03-14T09:25:35;2.22;;;1.02;;
5774;SDS011;2913;51.120;6.772;2023-03-14T09:28:01;1.15;;;0.55;;
5774;SDS011;2913;51.120;6.772;2023-03-14T09:30:29;1.65;;;0.70;;
5774;SDS011;2913;51.120;6.772;2023-03-14T09:32:55;0.93;;;0.50;;
5774;SDS011;2913;51.120;6.772;2023-03-14T09:35:23;1.77;;;0.70;;
5774;SDS011;2913;51.120;6.772;2023-03-14T09:37:52;4.70;;;0.50;;
5774;SDS011;2913;51.120;6.772;2023-03-14T09:40:19;0.68;;;0.38;;
5774;SDS011;2913;51.120;6.772;2023-03-14T09:42:46;1.90;;;0.47;;
5774;SDS011;2913;51.120;6.772;2023-03-14T09:45:21;1.08;;;0.77;;
5774;SDS011;2913;51.120;6.772;2023-03-14T09:47:50;4.50;;;0.90;;
5774;SDS011;2913;51.120;6.772;2023-03-14T09:50:17;1.35;;;0.70;;
5774;SDS011;2913;51.120;6.772;2023-03-14T09:52:45;1.10;;;0.70;;
5774;SDS011;2913;51.120;6.772;2023-03-14T09:55:13;1.23;;;0.80;;
5774;SDS011;2913;51.120;6.772;2023-03-14T09:57:45;3.63;;;0.90;;
5774;SDS011;2913;51.120;6.772;2023-03-14T10:06:01;4.82;;;1.60;;
5774;SDS011;2913;51.120;6.772;2023-03-14T10:08:33;2.95;;;1.63;;
5774;SDS011;2913;51.120;6.772;2023-03-14T10:10:59;5.18;;;2.00;;
5774;SDS011;2913;51.120;6.772;2023-03-14T10:13:25;6.82;;;2.60;;
5774;SDS011;2913;51.120;6.772;2023-03-14T10:15:58;9.00;;;1.92;;
5774;SDS011;2913;51.120;6.772;2023-03-14T10:18:29;1.42;;;1.15;;
5774;SDS011;2913;51.120;6.772;2023-03-14T10:23:34;4.93;;;1.60;;
5774;SDS011;2913;51.120;6.772;2023-03-14T10:26:05;5.65;;;1.65;;
5774;SDS011;2913;51.120;6.772;2023-03-14T10:29:01;6.50;;;1.73;;
5774;SDS011;2913;51.120;6.772;2023-03-14T10:31:26;3.95;;;1.48;;
5774;SDS011;2913;51.120;6.772;2023-03-14T10:33:59;1.90;;;1.30;;
5774;SDS011;2913;51.120;6.772;2023-03-14T10:36:27;4.03;;;1.80;;
5774;SDS011;2913;51.120;6.772;2023-03-14T10:39:14;4.95;;;1.98;;
5774;SDS011;2913;51.120;6.772;2023-03-14T10:42:12;8.57;;;2.30;;
5774;SDS011;2913;51.120;6.772;2023-03-14T10:44:44;10.05;;;3.78;;
5774;SDS011;2913;51.120;6.772;2023-03-14T10:47:18;10.65;;;3.30;;
5774;SDS011;2913;51.120;6.772;2023-03-14T10:49:48;8.70;;;3.78;;
5774;SDS011;2913;51.120;6.772;2023-03-14T10:52:27;8.65;;;3.70;;
5774;SDS011;2913;51.120;6.772;2023-03-14T10:54:58;9.90;;;3.30;;
5774;SDS011;2913;51.120;6.772;2023-03-14T10:57:30;6.70;;;2.45;;
5774;SDS011;2913;51.120;6.772;2023-03-14T10:59:56;6.57;;;2.30;;
5774;SDS011;2913;51.120;6.772;2023-03-14T11:02:37;5.82;;;2.05;;
5774;SDS011;2913;51.120;6.772;2023-03-14T11:07:52;5.90;;;2.15;;
5774;SDS011;2913;51.120;6.772;2023-03-14T11:18:36;2.83;;;1.42;;
5774;SDS011;2913;51.120;6.772;2023-03-14T11:32:07;4.50;;;1.48;;
5774;SDS011;2913;51.120;6.772;2023-03-14T11:34:50;6.80;;;1.70;;
5774;SDS011;2913;51.120;6.772;2023-03-14T11:42:35;5.45;;;1.70;;
5774;SDS011;2913;51.120;6.772;2023-03-14T11:45:03;5.00;;;1.40;;
5774;SDS011;2913;51.120;6.772;2023-03-14T11:47:37;4.28;;;1.60;;
5774;SDS011;2913;51.120;6.772;2023-03-14T11:50:25;9.63;;;1.60;;
5774;SDS011;2913;51.120;6.772;2023-03-14T11:55:40;11.20;;;1.70;;
5774;SDS011;2913;51.120;6.772;2023-03-14T11:58:17;9.40;;;2.10;;
5774;SDS011;2913;51.120;6.772;2023-03-14T12:01:07;9.82;;;2.25;;
5774;SDS011;2913;51.120;6.772;2023-03-14T12:06:28;7.38;;;1.63;;
5774;SDS011;2913;51.120;6.772;2023-03-14T12:09:02;12.63;;;2.90;;
5774;SDS011;2913;51.120;6.772;2023-03-14T12:11:33;10.38;;;2.25;;
5774;SDS011;2913;51.120;6.772;2023-03-14T12:16:50;6.85;;;2.88;;
5774;SDS011;2913;51.120;6.772;2023-03-14T12:21:51;15.18;;;3.05;;
5774;SDS011;2913;51.120;6.772;2023-03-14T12:24:34;7.57;;;1.67;;
5774;SDS011;2913;51.120;6.772;2023-03-14T12:27:03;11.82;;;3.13;;
5774;SDS011;2913;51.120;6.772;2023-03-14T12:29:30;8.07;;;2.05;;
5774;SDS011;2913;51.120;6.772;2023-03-14T12:35:07;7.38;;;2.47;;
5774;SDS011;2913;51.120;6.772;2023-03-14T12:37:53;9.70;;;1.73;;
5774;SDS011;2913;51.120;6.772;2023-03-14T12:40:29;8.13;;;2.28;;
5774;SDS011;2913;51.120;6.772;2023-03-14T12:43:03;3.40;;;1.50;;
5774;SDS011;2913;51.120;6.772;2023-03-14T12:48:45;15.48;;;1.83;;
5774;SDS011;2913;51.120;6.772;2023-03-14T13:15:14;11.70;;;2.97;;
5774;SDS011;2913;51.120;6.772;2023-03-14T13:17:54;7.47;;;2.38;;
5774;SDS011;2913;51.120;6.772;2023-03-14T13:20:28;9.65;;;3.53;;
5774;SDS011;2913;51.120;6.772;2023-03-14T13:23:28;13.85;;;2.85;;
5774;SDS011;2913;51.120;6.772;2023-03-14T13:25:56;8.15;;;1.75;;
5774;SDS011;2913;51.120;6.772;2023-03-14T13:28:22;30.52;;;3.53;;
5774;SDS011;2913;51.120;6.772;2023-03-14T13:30:49;13.70;;;2.97;;
5774;SDS011;2913;51.120;6.772;2023-03-14T13:33:21;26.25;;;3.72;;
5774;SDS011;2913;51.120;6.772;2023-03-14T13:35:49;13.25;;;2.85;;
5774;SDS011;2913;51.120;6.772;2023-03-14T13:38:28;35.88;;;4.05;;
5774;SDS011;2913;51.120;6.772;2023-03-14T13:40:56;32.08;;;3.05;;
5774;SDS011;2913;51.120;6.772;2023-03-14T13:46:00;36.00;;;3.63;;
5774;SDS011;2913;51.120;6.772;2023-03-14T13:48:43;27.65;;;2.63;;
5774;SDS011;2913;51.120;6.772;2023-03-14T13:51:13;29.00;;;3.80;;
5774;SDS011;2913;51.120;6.772;2023-03-14T13:53:44;40.90;;;2.92;;
5774;SDS011;2913;51.120;6.772;2023-03-14T13:56:15;21.83;;;3.08;;
5774;SDS011;2913;51.120;6.772;2023-03-14T13:58:42;25.65;;;4.93;;
5774;SDS011;2913;51.120;6.772;2023-03-14T14:01:25;43.70;;;3.90;;
5774;SDS011;2913;51.120;6.772;2023-03-14T14:04:01;30.55;;;4.10;;
5774;SDS011;2913;51.120;6.772;2023-03-14T14:06:35;23.50;;;3.05;;
5774;SDS011;2913;51.120;6.772;2023-03-14T14:14:21;27.80;;;3.55;;
5774;SDS011;2913;51.120;6.772;2023-03-14T14:16:54;38.95;;;3.40;;
5774;SDS011;2913;51.120;6.772;2023-03-14T14:19:21;40.80;;;5.05;;
5774;SDS011;2913;51.120;6.772;2023-03-14T14:21:50;40.78;;;4.70;;
5774;SDS011;2913;51.120;6.772;2023-03-14T14:24:18;29.67;;;5.15;;
5774;SDS011;2913;51.120;6.772;2023-03-14T14:26:58;29.42;;;2.60;;
5774;SDS011;2913;51.120;6.772;2023-03-14T14:34:46;28.95;;;3.03;;
5774;SDS011;2913;51.120;6.772;2023-03-14T14:37:25;38.15;;;3.80;;
5774;SDS011;2913;51.120;6.772;2023-03-14T14:39:52;36.72;;;2.53;;
5774;SDS011;2913;51.120;6.772;2023-03-14T14:42:26;23.10;;;2.60;;
5774;SDS011;2913;51.120;6.772;2023-03-14T14:44:58;41.60;;;2.53;;
5774;SDS011;2913;51.120;6.772;2023-03-14T14:47:25;22.05;;;2.80;;
5774;SDS011;2913;51.120;6.772;2023-03-14T14:49:58;26.08;;;2.63;;
5774;SDS011;2913;51.120;6.772;2023-03-14T14:52:42;28.05;;;4.18;;
5774;SDS011;2913;51.120;6.772;2023-03-14T14:55:19;36.15;;;3.70;;
5774;SDS011;2913;51.120;6.772;2023-03-14T14:57:52;38.65;;;2.88;;
5774;SDS011;2913;51.120;6.772;2023-03-14T15:00:23;32.90;;;3.10;;
5774;SDS011;2913;51.120;6.772;2023-03-14T15:02:51;36.90;;;3.70;;
5774;SDS011;2913;51.120;6.772;2023-03-14T15:05:21;46.55;;;4.82;;
5774;SDS011;2913;51.120;6.772;2023-03-14T15:07:49;27.25;;;2.80;;
5774;SDS011;2913;51.120;6.772;2023-03-14T15:10:16;29.30;;;3.08;;
5774;SDS011;2913;51.120;6.772;2023-03-14T15:12:43;15.90;;;3.92;;
5774;SDS011;2913;51.120;6.772;2023-03-14T15:15:12;22.65;;;4.65;;
5774;SDS011;2913;51.120;6.772;2023-03-14T15:17:43;20.08;;;3.03;;
5774;SDS011;2913;51.120;6.772;2023-03-14T15:20:13;37.42;;;4.80;;
5774;SDS011;2913;51.120;6.772;2023-03-14T15:22:40;30.00;;;3.53;;
5774;SDS011;2913;51.120;6.772;2023-03-14T15:25:07;23.55;;;4.10;;
5774;SDS011;2913;51.120;6.772;2023-03-14T15:27:36;25.45;;;3.15;;
5774;SDS011;2913;51.120;6.772;2023-03-14T15:30:09;22.48;;;4.00;;
5774;SDS011;2913;51.120;6.772;2023-03-14T15:32:36;29.58;;;4.53;;
5774;SDS011;2913;51.120;6.772;2023-03-14T15:35:05;25.98;;;4.38;;
5774;SDS011;2913;51.120;6.772;2023-03-14T15:37:32;15.85;;;3.13;;
5774;SDS011;2913;51.120;6.772;2023-03-14T15:40:01;24.15;;;3.65;;
5774;SDS011;2913;51.120;6.772;2023-03-14T15:42:35;16.77;;;2.90;;
5774;SDS011;2913;51.120;6.772;2023-03-14T15:45:03;8.82;;;1.63;;
5774;SDS011;2913;51.120;6.772;2023-03-14T15:47:29;15.65;;;3.20;;
5774;SDS011;2913;51.120;6.772;2023-03-14T15:49:59;10.43;;;1.92;;
5774;SDS011;2913;51.120;6.772;2023-03-14T15:52:25;19.88;;;2.97;;
5774;SDS011;2913;51.120;6.772;2023-03-14T15:54:50;13.05;;;2.42;;
5774;SDS011;2913;51.120;6.772;2023-03-14T15:57:18;24.75;;;5.70;;
5774;SDS011;2913;51.120;6.772;2023-03-14T15:59:44;17.73;;;2.33;;
5774;SDS011;2913;51.120;6.772;2023-03-14T16:02:09;17.13;;;2.28;;
5774;SDS011;2913;51.120;6.772;2023-03-14T16:04:40;18.08;;;2.53;;
5774;SDS011;2913;51.120;6.772;2023-03-14T16:07:08;21.17;;;3.42;;
5774;SDS011;2913;51.120;6.772;2023-03-14T16:09:34;16.77;;;5.25;;
5774;SDS011;2913;51.120;6.772;2023-03-14T16:12:02;20.13;;;3.28;;
5774;SDS011;2913;51.120;6.772;2023-03-14T16:14:32;13.05;;;2.30;;
5774;SDS011;2913;51.120;6.772;2023-03-14T16:16:59;22.17;;;3.95;;
5774;SDS011;2913;51.120;6.772;2023-03-14T16:19:27;9.48;;;2.03;;
5774;SDS011;2913;51.120;6.772;2023-03-14T16:21:55;7.43;;;1.75;;
5774;SDS011;2913;51.120;6.772;2023-03-14T16:24:23;13.77;;;2.72;;
5774;SDS011;2913;51.120;6.772;2023-03-14T16:26:51;19.85;;;3.00;;
5774;SDS011;2913;51.120;6.772;2023-03-14T16:29:17;16.13;;;2.10;;
5774;SDS011;2913;51.120;6.772;2023-03-14T16:31:45;20.00;;;1.95;;
5774;SDS011;2913;51.120;6.772;2023-03-14T16:34:13;12.65;;;1.98;;
5774;SDS011;2913;51.120;6.772;2023-03-14T16:36:38;16.25;;;2.95;;
5774;SDS011;2913;51.120;6.772;2023-03-14T16:39:04;13.38;;;2.78;;
5774;SDS011;2913;51.120;6.772;2023-03-14T16:41:32;13.43;;;2.83;;
5774;SDS011;2913;51.120;6.772;2023-03-14T16:43:59;15.43;;;2.47;;
5774;SDS011;2913;51.120;6.772;2023-03-14T16:46:26;8.40;;;1.65;;
5774;SDS011;2913;51.120;6.772;2023-03-14T16:48:54;9.05;;;2.53;;
5774;SDS011;2913;51.120;6.772;2023-03-14T16:51:20;22.23;;;4.28;;